sensor_id;sensor_type;location;lat;lon;timestamp;pressure;altitude;pressure_sealevel;temperature;humidity
11198;BME280;5655;48.744;9.162;2023-05-25T00:00:41;96525.75;;;12.29;100.00
11198;BME280;5655;48.744;9.162;2023-05-25T00:03:07;96527.25;;;12.26;100.00
11198;BME280;5655;48.744;9.162;2023-05-25T00:05:34;96530.34;;;12.28;100.00
11198;BME280;5655;48.744;9.162;2023-05-25T00:08:00;96530.41;;;12.36;100.00
11198;BME280;5655;48.744;9.162;2023-05-25T00:10:25;96532.41;;;12.42;100.00
11198;BME280;5655;48.744;9.162;2023-05-25T00:12:50;96525.00;;;12.32;100.00
11198;BME280;5655;48.744;9.162;2023-05-25T00:15:16;96526.16;;;12.35;100.00
11198;BME280;5655;48.744;9.162;2023-05-25T00:17:42;96535.81;;;12.39;100.00
11198;BME280;5655;48.744;9.162;2023-05-25T00:20:08;96529.25;;;12.33;100.00
11198;BME280;5655;48.744;9.162;2023-05-25T00:22:37;96536.66;;;12.47;100.00
11198;BME280;5655;48.744;9.162;2023-05-25T00:25:04;96528.13;;;12.38;100.00
11198;BME280;5655;48.744;9.162;2023-05-25T00:27:30;96527.38;;;12.41;100.00
11198;BME280;5655;48.744;9.162;2023-05-25T00:29:56;96531.97;;;12.37;100.00
11198;BME280;5655;48.744;9.162;2023-05-25T00:32:21;96525.00;;;12.32;100.00
11198;BME280;5655;48.744;9.162;2023-05-25T00:34:46;96524.59;;;12.30;100.00
11198;BME280;5655;48.744;9.162;2023-05-25T00:37:12;96528.19;;;12.45;100.00
11198;BME280;5655;48.744;9.162;2023-05-25T00:39:38;96526.34;;;12.52;100.00
11198;BME280;5655;48.744;9.162;2023-05-25T00:42:04;96534.13;;;12.24;100.00
11198;BME280;5655;48.744;9.162;2023-05-25T00:44:31;96525.28;;;12.20;100.00
11198;BME280;5655;48.744;9.162;2023-05-25T00:46:56;96533.34;;;12.23;100.00
11198;BME280;5655;48.744;9.162;2023-05-25T00:49:21;96516.47;;;12.23;100.00
11198;BME280;5655;48.744;9.162;2023-05-25T00:51:47;96522.03;;;12.44;100.00
11198;BME280;5655;48.744;9.162;2023-05-25T00:54:16;96512.38;;;12.33;100.00
11198;BME280;5655;48.744;9.162;2023-05-25T00:56:49;96512.75;;;12.35;100.00
11198;BME280;5655;48.744;9.162;2023-05-25T00:59:22;96519.50;;;12.62;100.00
11198;BME280;5655;48.744;9.162;2023-05-25T01:01:50;96509.19;;;12.64;100.00
11198;BME280;5655;48.744;9.162;2023-05-25T01:04:19;96511.56;;;12.76;100.00
11198;BME280;5655;48.744;9.162;2023-05-25T01:06:47;96509.81;;;12.47;100.00
11198;BME280;5655;48.744;9.162;2023-05-25T01:09:15;96509.72;;;12.40;100.00
11198;BME280;5655;48.744;9.162;2023-05-25T01:11:43;96514.34;;;12.43;100.00
11198;BME280;5655;48.744;9.162;2023-05-25T01:14:09;96517.91;;;12.54;100.00
11198;BME280;5655;48.744;9.162;2023-05-25T01:16:35;96509.91;;;12.61;100.00
11198;BME280;5655;48.744;9.162;2023-05-25T01:19:02;96512.84;;;12.42;100.00
11198;BME280;5655;48.744;9.162;2023-05-25T01:21:53;96511.50;;;12.69;100.00
11198;BME280;5655;48.744;9.162;2023-05-25T01:24:38;96517.63;;;12.66;100.00
11198;BME280;5655;48.744;9.162;2023-05-25T01:27:12;96511.41;;;12.55;100.00
11198;BME280;5655;48.744;9.162;2023-05-25T01:29:43;96507.44;;;12.38;100.00
11198;BME280;5655;48.744;9.162;2023-05-25T01:32:10;96501.28;;;12.38;100.00
11198;BME280;5655;48.744;9.162;2023-05-25T01:34:36;96507.66;;;12.22;100.00
11198;BME280;5655;48.744;9.162;2023-05-25T01:37:04;96507.44;;;12.01;100.00
11198;BME280;5655;48.744;9.162;2023-05-25T01:39:30;96518.59;;;12.03;100.00
11198;BME280;5655;48.744;9.162;2023-05-25T01:41:55;96512.81;;;12.01;100.00
11198;BME280;5655;48.744;9.162;2023-05-25T01:44:20;96514.69;;;11.97;100.00
11198;BME280;5655;48.744;9.162;2023-05-25T01:47:17;96518.47;;;11.93;100.00
11198;BME280;5655;48.744;9.162;2023-05-25T01:50:00;96522.34;;;12.36;100.00
11198;BME280;5655;48.744;9.162;2023-05-25T01:52:35;96513.97;;;12.41;100.00
11198;BME280;5655;48.744;9.162;2023-05-25T01:55:18;96518.91;;;12.35;100.00
11198;BME280;5655;48.744;9.162;2023-05-25T01:57:49;96517.66;;;12.25;100.00
11198;BME280;5655;48.744;9.162;2023-05-25T02:00:15;96511.63;;;12.36;100.00
11198;BME280;5655;48.744;9.162;2023-05-25T02:02:43;96523.97;;;12.03;100.00
11198;BME280;5655;48.744;9.162;2023-05-25T02:05:09;96507.19;;;12.13;100.00
11198;BME280;5655;48.744;9.162;2023-05-25T02:07:35;96506.81;;;11.78;100.00
11198;BME280;5655;48.744;9.162;2023-05-25T02:10:01;96502.59;;;11.77;100.00
11198;BME280;5655;48.744;9.162;2023-05-25T02:12:27;96506.53;;;11.87;100.00
11198;BME280;5655;48.744;9.162;2023-05-25T02:14:52;96498.97;;;11.66;100.00
11198;BME280;5655;48.744;9.162;2023-05-25T02:17:17;96489.19;;;11.77;100.00
11198;BME280;5655;48.744;9.162;2023-05-25T02:19:44;96497.34;;;11.88;100.00
11198;BME280;5655;48.744;9.162;2023-05-25T02:22:10;96496.72;;;11.68;100.00
11198;BME280;5655;48.744;9.162;2023-05-25T02:24:36;96496.72;;;11.68;100.00
11198;BME280;5655;48.744;9.162;2023-05-25T02:27:02;96495.53;;;11.65;100.00
11198;BME280;5655;48.744;9.162;2023-05-25T02:29:28;96495.59;;;11.69;100.00
11198;BME280;5655;48.744;9.162;2023-05-25T02:31:53;96492.91;;;11.69;100.00
11198;BME280;5655;48.744;9.162;2023-05-25T02:34:18;96488.66;;;11.64;100.00
11198;BME280;5655;48.744;9.162;2023-05-25T02:36:44;96487.19;;;11.41;100.00
11198;BME280;5655;48.744;9.162;2023-05-25T02:39:10;96479.19;;;11.44;100.00
11198;BME280;5655;48.744;9.162;2023-05-25T02:41:36;96486.00;;;11.68;100.00
11198;BME280;5655;48.744;9.162;2023-05-25T02:44:01;96482.50;;;11.64;100.00
11198;BME280;5655;48.744;9.162;2023-05-25T02:46:27;96481.69;;;11.60;100.00
11198;BME280;5655;48.744;9.162;2023-05-25T02:48:52;96485.56;;;11.66;100.00
11198;BME280;5655;48.744;9.162;2023-05-25T02:51:17;96486.00;;;11.68;100.00
11198;BME280;5655;48.744;9.162;2023-05-25T02:53:43;96483.44;;;11.78;100.00
11198;BME280;5655;48.744;9.162;2023-05-25T02:56:08;96486.19;;;11.82;100.00
11198;BME280;5655;48.744;9.162;2023-05-25T02:58:35;96488.78;;;11.75;100.00
11198;BME280;5655;48.744;9.162;2023-05-25T03:01:01;96497.47;;;11.65;100.00
11198;BME280;5655;48.744;9.162;2023-05-25T03:03:27;96496.53;;;11.54;100.00
11198;BME280;5655;48.744;9.162;2023-05-25T03:05:54;96494.28;;;11.56;100.00
11198;BME280;5655;48.744;9.162;2023-05-25T03:08:19;96506.16;;;11.55;100.00
11198;BME280;5655;48.744;9.162;2023-05-25T03:10:45;96507.81;;;11.66;100.00
11198;BME280;5655;48.744;9.162;2023-05-25T03:13:10;96506.88;;;11.52;100.00
11198;BME280;5655;48.744;9.162;2023-05-25T03:15:35;96505.97;;;11.41;100.00
11198;BME280;5655;48.744;9.162;2023-05-25T03:18:00;96506.72;;;11.11;100.00
11198;BME280;5655;48.744;9.162;2023-05-25T03:20:26;96503.75;;;11.16;100.00
11198;BME280;5655;48.744;9.162;2023-05-25T03:22:53;96508.22;;;11.09;100.00
11198;BME280;5655;48.744;9.162;2023-05-25T03:25:19;96510.28;;;11.19;100.00
11198;BME280;5655;48.744;9.162;2023-05-25T03:27:44;96503.69;;;11.43;100.00
11198;BME280;5655;48.744;9.162;2023-05-25T03:30:10;96510.69;;;11.51;100.00
11198;BME280;5655;48.744;9.162;2023-05-25T03:32:36;96508.78;;;11.51;100.00
11198;BME280;5655;48.744;9.162;2023-05-25T03:35:03;96509.50;;;11.18;100.00
11198;BME280;5655;48.744;9.162;2023-05-25T03:37:28;96505.41;;;11.28;100.00
11198;BME280;5655;48.744;9.162;2023-05-25T03:39:54;96502.63;;;11.47;100.00
11198;BME280;5655;48.744;9.162;2023-05-25T03:42:19;96506.53;;;11.57;100.00
11198;BME280;5655;48.744;9.162;2023-05-25T03:44:44;96505.13;;;11.66;100.00
11198;BME280;5655;48.744;9.162;2023-05-25T03:47:10;96508.03;;;11.54;100.00
11198;BME280;5655;48.744;9.162;2023-05-25T03:49:36;96500.06;;;11.28;100.00
11198;BME280;5655;48.744;9.162;2023-05-25T03:52:02;96503.44;;;11.51;100.00
11198;BME280;5655;48.744;9.162;2023-05-25T03:54:27;96505.91;;;11.67;100.00
11198;BME280;5655;48.744;9.162;2023-05-25T03:56:52;96511.00;;;11.46;100.00
11198;BME280;5655;48.744;9.162;2023-05-25T03:59:18;96510.44;;;11.63;100.00
11198;BME280;5655;48.744;9.162;2023-05-25T04:01:43;96520.03;;;11.64;100.00
11198;BME280;5655;48.744;9.162;2023-05-25T04:04:09;96522.06;;;11.14;100.00
11198;BME280;5655;48.744;9.162;2023-05-25T04:06:34;96527.25;;;11.00;100.00
11198;BME280;5655;48.744;9.162;2023-05-25T04:09:02;96525.31;;;11.01;100.00
11198;BME280;5655;48.744;9.162;2023-05-25T04:11:28;96530.88;;;10.88;100.00
11198;BME280;5655;48.744;9.162;2023-05-25T04:13:53;96530.88;;;10.88;100.00
11198;BME280;5655;48.744;9.162;2023-05-25T04:16:19;96530.34;;;10.79;100.00
11198;BME280;5655;48.744;9.162;2023-05-25T04:18:45;96531.91;;;10.80;100.00
11198;BME280;5655;48.744;9.162;2023-05-25T04:21:11;96527.41;;;10.62;100.00
11198;BME280;5655;48.744;9.162;2023-05-25T04:23:36;96523.72;;;10.70;100.00
11198;BME280;5655;48.744;9.162;2023-05-25T04:26:01;96517.41;;;10.59;100.00
11198;BME280;5655;48.744;9.162;2023-05-25T04:28:27;96519.91;;;10.71;100.00
11198;BME280;5655;48.744;9.162;2023-05-25T04:30:53;96514.66;;;10.78;100.00
11198;BME280;5655;48.744;9.162;2023-05-25T04:33:21;96527.03;;;10.86;100.00
11198;BME280;5655;48.744;9.162;2023-05-25T04:35:47;96528.66;;;11.20;100.00
11198;BME280;5655;48.744;9.162;2023-05-25T04:38:14;96524.03;;;10.91;100.00
11198;BME280;5655;48.744;9.162;2023-05-25T04:40:41;96522.38;;;10.83;100.00
11198;BME280;5655;48.744;9.162;2023-05-25T04:43:07;96520.47;;;10.83;100.00
11198;BME280;5655;48.744;9.162;2023-05-25T04:45:38;96527.41;;;10.88;100.00
11198;BME280;5655;48.744;9.162;2023-05-25T04:48:03;96527.81;;;10.86;100.00
11198;BME280;5655;48.744;9.162;2023-05-25T04:50:28;96525.28;;;10.74;100.00
11198;BME280;5655;48.744;9.162;2023-05-25T04:52:54;96529.44;;;10.95;100.00
11198;BME280;5655;48.744;9.162;2023-05-25T04:55:19;96534.47;;;10.73;100.00
11198;BME280;5655;48.744;9.162;2023-05-25T04:57:44;96530.50;;;10.64;100.00
11198;BME280;5655;48.744;9.162;2023-05-25T05:00:11;96532.69;;;10.81;100.00
11198;BME280;5655;48.744;9.162;2023-05-25T05:02:39;96525.06;;;11.09;100.00
11198;BME280;5655;48.744;9.162;2023-05-25T05:05:04;96534.38;;;11.19;100.00
11198;BME280;5655;48.744;9.162;2023-05-25T05:07:30;96535.63;;;10.99;100.00
11198;BME280;5655;48.744;9.162;2023-05-25T05:09:55;96532.53;;;10.97;100.00
11198;BME280;5655;48.744;9.162;2023-05-25T05:12:21;96535.59;;;10.95;100.00
11198;BME280;5655;48.744;9.162;2023-05-25T05:14:46;96529.94;;;10.77;100.00
11198;BME280;5655;48.744;9.162;2023-05-25T05:17:11;96537.31;;;11.10;100.00
11198;BME280;5655;48.744;9.162;2023-05-25T05:19:37;96532.81;;;11.18;100.00
11198;BME280;5655;48.744;9.162;2023-05-25T05:22:02;96544.69;;;11.43;100.00
11198;BME280;5655;48.744;9.162;2023-05-25T05:24:27;96552.66;;;11.39;100.00
11198;BME280;5655;48.744;9.162;2023-05-25T05:26:53;96552.03;;;11.50;100.00
11198;BME280;5655;48.744;9.162;2023-05-25T05:29:18;96555.84;;;11.49;100.00
11198;BME280;5655;48.744;9.162;2023-05-25T05:31:43;96566.16;;;11.47;100.00
11198;BME280;5655;48.744;9.162;2023-05-25T05:34:09;96569.53;;;11.44;100.00
11198;BME280;5655;48.744;9.162;2023-05-25T05:36:34;96572.97;;;11.41;100.00
11198;BME280;5655;48.744;9.162;2023-05-25T05:39:00;96576.94;;;11.50;100.00
11198;BME280;5655;48.744;9.162;2023-05-25T05:41:25;96568.25;;;11.60;100.00
11198;BME280;5655;48.744;9.162;2023-05-25T05:43:51;96578.41;;;11.48;100.00
11198;BME280;5655;48.744;9.162;2023-05-25T05:46:16;96577.28;;;11.49;100.00
11198;BME280;5655;48.744;9.162;2023-05-25T05:48:42;96581.19;;;11.81;100.00
11198;BME280;5655;48.744;9.162;2023-05-25T05:51:07;96580.94;;;11.93;100.00
11198;BME280;5655;48.744;9.162;2023-05-25T05:53:32;96587.47;;;11.96;100.00
11198;BME280;5655;48.744;9.162;2023-05-25T05:56:00;96585.25;;;12.01;100.00
11198;BME280;5655;48.744;9.162;2023-05-25T05:58:25;96595.72;;;12.13;100.00
11198;BME280;5655;48.744;9.162;2023-05-25T06:00:51;96603.91;;;12.24;100.00
11198;BME280;5655;48.744;9.162;2023-05-25T06:03:17;96602.50;;;12.34;100.00
11198;BME280;5655;48.744;9.162;2023-05-25T06:05:43;96604.84;;;12.05;100.00
11198;BME280;5655;48.744;9.162;2023-05-25T06:08:08;96606.78;;;12.42;100.00
11198;BME280;5655;48.744;9.162;2023-05-25T06:10:34;96600.94;;;12.33;100.00
11198;BME280;5655;48.744;9.162;2023-05-25T06:13:00;96610.97;;;12.39;100.00
11198;BME280;5655;48.744;9.162;2023-05-25T06:15:25;96617.19;;;12.47;100.00
11198;BME280;5655;48.744;9.162;2023-05-25T06:17:50;96613.09;;;12.23;100.00
11198;BME280;5655;48.744;9.162;2023-05-25T06:20:16;96619.31;;;12.31;100.00
11198;BME280;5655;48.744;9.162;2023-05-25T06:22:41;96618.81;;;12.55;100.00
11198;BME280;5655;48.744;9.162;2023-05-25T06:25:07;96610.88;;;12.69;100.00
11198;BME280;5655;48.744;9.162;2023-05-25T06:27:34;96611.22;;;12.64;100.00
11198;BME280;5655;48.744;9.162;2023-05-25T06:29:59;96620.94;;;12.79;100.00
11198;BME280;5655;48.744;9.162;2023-05-25T06:32:25;96609.84;;;12.81;100.00
11198;BME280;5655;48.744;9.162;2023-05-25T06:34:50;96605.44;;;13.02;100.00
11198;BME280;5655;48.744;9.162;2023-05-25T06:37:15;96607.84;;;13.14;100.00
11198;BME280;5655;48.744;9.162;2023-05-25T06:39:41;96610.19;;;13.20;100.00
11198;BME280;5655;48.744;9.162;2023-05-25T06:42:08;96621.41;;;12.88;100.00
11198;BME280;5655;48.744;9.162;2023-05-25T06:44:33;96617.97;;;13.32;100.00
11198;BME280;5655;48.744;9.162;2023-05-25T06:46:59;96622.53;;;13.28;100.00
11198;BME280;5655;48.744;9.162;2023-05-25T06:49:24;96625.84;;;13.65;100.00
11198;BME280;5655;48.744;9.162;2023-05-25T06:51:49;96611.53;;;13.50;100.00
11198;BME280;5655;48.744;9.162;2023-05-25T06:54:15;96619.50;;;13.33;100.00
11198;BME280;5655;48.744;9.162;2023-05-25T06:56:40;96612.56;;;13.28;100.00
11198;BME280;5655;48.744;9.162;2023-05-25T06:59:06;96624.03;;;13.83;100.00
11198;BME280;5655;48.744;9.162;2023-05-25T07:01:31;96624.00;;;13.76;100.00
11198;BME280;5655;48.744;9.162;2023-05-25T07:03:57;96629.84;;;13.92;100.00
11198;BME280;5655;48.744;9.162;2023-05-25T07:06:22;96630.84;;;13.63;100.00
11198;BME280;5655;48.744;9.162;2023-05-25T07:08:47;96639.63;;;13.60;100.00
11198;BME280;5655;48.744;9.162;2023-05-25T07:11:12;96634.72;;;13.69;100.00
11198;BME280;5655;48.744;9.162;2023-05-25T07:13:39;96637.38;;;13.66;100.00
11198;BME280;5655;48.744;9.162;2023-05-25T07:16:04;96639.25;;;13.58;100.00
11198;BME280;5655;48.744;9.162;2023-05-25T07:18:30;96647.56;;;14.04;100.00
11198;BME280;5655;48.744;9.162;2023-05-25T07:20:55;96643.63;;;13.80;100.00
11198;BME280;5655;48.744;9.162;2023-05-25T07:23:21;96638.16;;;13.66;100.00
11198;BME280;5655;48.744;9.162;2023-05-25T07:25:46;96649.47;;;13.96;100.00
11198;BME280;5655;48.744;9.162;2023-05-25T07:28:12;96655.97;;;13.92;100.00
11198;BME280;5655;48.744;9.162;2023-05-25T07:30:39;96647.59;;;14.07;100.00
11198;BME280;5655;48.744;9.162;2023-05-25T07:33:04;96652.78;;;14.55;100.00
11198;BME280;5655;48.744;9.162;2023-05-25T07:35:30;96657.81;;;14.60;100.00
11198;BME280;5655;48.744;9.162;2023-05-25T07:37:59;96654.22;;;14.28;100.00
11198;BME280;5655;48.744;9.162;2023-05-25T07:40:25;96657.81;;;14.67;100.00
11198;BME280;5655;48.744;9.162;2023-05-25T07:42:50;96653.94;;;14.54;100.00
11198;BME280;5655;48.744;9.162;2023-05-25T07:45:16;96665.88;;;14.57;100.00
11198;BME280;5655;48.744;9.162;2023-05-25T07:47:41;96666.66;;;14.53;100.00
11198;BME280;5655;48.744;9.162;2023-05-25T07:50:07;96661.69;;;14.66;100.00
11198;BME280;5655;48.744;9.162;2023-05-25T07:52:32;96660.97;;;15.01;100.00
11198;BME280;5655;48.744;9.162;2023-05-25T07:54:57;96662.16;;;15.18;100.00
11198;BME280;5655;48.744;9.162;2023-05-25T07:57:23;96665.22;;;15.37;100.00
11198;BME280;5655;48.744;9.162;2023-05-25T07:59:49;96654.81;;;15.43;100.00
11198;BME280;5655;48.744;9.162;2023-05-25T08:02:14;96656.78;;;15.53;100.00
11198;BME280;5655;48.744;9.162;2023-05-25T08:04:39;96650.97;;;15.37;100.00
11198;BME280;5655;48.744;9.162;2023-05-25T08:07:05;96655.19;;;15.24;100.00
11198;BME280;5655;48.744;9.162;2023-05-25T08:09:30;96658.28;;;15.40;100.00
11198;BME280;5655;48.744;9.162;2023-05-25T08:11:56;96649.41;;;15.71;100.00
11198;BME280;5655;48.744;9.162;2023-05-25T08:14:21;96650.19;;;15.72;100.00
11198;BME280;5655;48.744;9.162;2023-05-25T08:16:48;96647.03;;;15.98;100.00
11198;BME280;5655;48.744;9.162;2023-05-25T08:19:13;96653.28;;;15.70;100.00
11198;BME280;5655;48.744;9.162;2023-05-25T08:21:38;96649.34;;;16.00;100.00
11198;BME280;5655;48.744;9.162;2023-05-25T08:24:04;96646.25;;;16.08;100.00
11198;BME280;5655;48.744;9.162;2023-05-25T08:26:32;96654.63;;;16.35;100.00
11198;BME280;5655;48.744;9.162;2023-05-25T08:29:00;96653.38;;;16.54;100.00
11198;BME280;5655;48.744;9.162;2023-05-25T08:31:26;96665.44;;;16.28;100.00
11198;BME280;5655;48.744;9.162;2023-05-25T08:33:51;96665.03;;;16.37;100.00
11198;BME280;5655;48.744;9.162;2023-05-25T08:36:17;96666.75;;;16.78;100.00
11198;BME280;5655;48.744;9.162;2023-05-25T08:38:42;96669.81;;;16.84;100.00
11198;BME280;5655;48.744;9.162;2023-05-25T08:41:09;96673.81;;;16.62;100.00
11198;BME280;5655;48.744;9.162;2023-05-25T08:43:36;96671.44;;;16.74;100.00
11198;BME280;5655;48.744;9.162;2023-05-25T08:46:05;96677.50;;;16.93;100.00
11198;BME280;5655;48.744;9.162;2023-05-25T08:48:33;96679.78;;;17.01;100.00
11198;BME280;5655;48.744;9.162;2023-05-25T08:51:04;96677.06;;;17.53;100.00
11198;BME280;5655;48.744;9.162;2023-05-25T08:53:34;96674.44;;;16.87;100.00
11198;BME280;5655;48.744;9.162;2023-05-25T08:56:03;96671.00;;;17.38;100.00
11198;BME280;5655;48.744;9.162;2023-05-25T08:58:33;96678.66;;;17.47;100.00
11198;BME280;5655;48.744;9.162;2023-05-25T09:01:07;96675.53;;;17.48;100.00
11198;BME280;5655;48.744;9.162;2023-05-25T09:03:32;96666.47;;;17.73;100.00
11198;BME280;5655;48.744;9.162;2023-05-25T09:05:58;96661.97;;;17.52;100.00
11198;BME280;5655;48.744;9.162;2023-05-25T09:08:24;96665.34;;;17.70;100.00
11198;BME280;5655;48.744;9.162;2023-05-25T09:10:51;96678.69;;;17.43;100.00
11198;BME280;5655;48.744;9.162;2023-05-25T09:13:18;96666.72;;;17.89;100.00
11198;BME280;5655;48.744;9.162;2023-05-25T09:15:43;96674.59;;;17.73;100.00
11198;BME280;5655;48.744;9.162;2023-05-25T09:18:09;96670.66;;;17.81;100.00
11198;BME280;5655;48.744;9.162;2023-05-25T09:20:34;96684.03;;;17.98;100.00
11198;BME280;5655;48.744;9.162;2023-05-25T09:22:59;96678.81;;;18.14;100.00
11198;BME280;5655;48.744;9.162;2023-05-25T09:25:27;96680.13;;;17.99;100.00
11198;BME280;5655;48.744;9.162;2023-05-25T09:27:53;96681.19;;;18.09;100.00
11198;BME280;5655;48.744;9.162;2023-05-25T09:30:21;96692.25;;;17.88;100.00
11198;BME280;5655;48.744;9.162;2023-05-25T09:32:46;96678.41;;;17.79;100.00
11198;BME280;5655;48.744;9.162;2023-05-25T09:35:13;96686.69;;;18.02;100.00
11198;BME280;5655;48.744;9.162;2023-05-25T09:37:40;96687.78;;;18.08;100.00
11198;BME280;5655;48.744;9.162;2023-05-25T09:40:06;96688.78;;;18.21;100.00
11198;BME280;5655;48.744;9.162;2023-05-25T09:42:32;96688.78;;;18.89;100.00
11198;BME280;5655;48.744;9.162;2023-05-25T09:44:58;96692.16;;;19.23;100.00
11198;BME280;5655;48.744;9.162;2023-05-25T09:47:25;96686.72;;;19.23;100.00
11198;BME280;5655;48.744;9.162;2023-05-25T09:49:51;96693.19;;;19.06;100.00
11198;BME280;5655;48.744;9.162;2023-05-25T09:52:16;96695.78;;;19.40;100.00
11198;BME280;5655;48.744;9.162;2023-05-25T09:54:46;96680.59;;;19.42;100.00
11198;BME280;5655;48.744;9.162;2023-05-25T09:57:12;96696.81;;;18.96;100.00
11198;BME280;5655;48.744;9.162;2023-05-25T09:59:37;96687.38;;;19.04;100.00
11198;BME280;5655;48.744;9.162;2023-05-25T10:02:03;96695.81;;;19.36;100.00
11198;BME280;5655;48.744;9.162;2023-05-25T10:04:28;96689.13;;;19.44;100.00
11198;BME280;5655;48.744;9.162;2023-05-25T10:06:54;96698.53;;;19.36;100.00
11198;BME280;5655;48.744;9.162;2023-05-25T10:09:21;96693.19;;;19.29;100.00
11198;BME280;5655;48.744;9.162;2023-05-25T10:11:50;96686.19;;;19.59;100.00
11198;BME280;5655;48.744;9.162;2023-05-25T10:14:20;96697.72;;;19.39;100.00
11198;BME280;5655;48.744;9.162;2023-05-25T10:16:47;96691.16;;;19.37;100.00
11198;BME280;5655;48.744;9.162;2023-05-25T10:19:31;96695.06;;;19.36;100.00
11198;BME280;5655;48.744;9.162;2023-05-25T10:22:01;96697.03;;;19.82;100.00
11198;BME280;5655;48.744;9.162;2023-05-25T10:24:42;96698.59;;;20.46;100.00
11198;BME280;5655;48.744;9.162;2023-05-25T10:27:12;96695.31;;;20.54;100.00
11198;BME280;5655;48.744;9.162;2023-05-25T10:29:42;96690.72;;;20.71;100.00
11198;BME280;5655;48.744;9.162;2023-05-25T10:32:08;96698.97;;;20.24;100.00
11198;BME280;5655;48.744;9.162;2023-05-25T10:34:34;96698.59;;;20.03;100.00
11198;BME280;5655;48.744;9.162;2023-05-25T10:37:01;96697.03;;;20.05;100.00
11198;BME280;5655;48.744;9.162;2023-05-25T10:39:28;96691.44;;;20.12;100.00
11198;BME280;5655;48.744;9.162;2023-05-25T10:41:53;96696.94;;;20.28;100.00
11198;BME280;5655;48.744;9.162;2023-05-25T10:44:19;96687.16;;;20.34;100.00
11198;BME280;5655;48.744;9.162;2023-05-25T10:46:45;96693.19;;;20.22;100.00
11198;BME280;5655;48.744;9.162;2023-05-25T10:49:11;96686.16;;;20.05;100.00
11198;BME280;5655;48.744;9.162;2023-05-25T10:51:40;96681.53;;;20.81;100.00
11198;BME280;5655;48.744;9.162;2023-05-25T10:54:05;96694.03;;;20.78;100.00
11198;BME280;5655;48.744;9.162;2023-05-25T10:56:31;96691.28;;;20.98;100.00
11198;BME280;5655;48.744;9.162;2023-05-25T10:58:57;96691.91;;;20.70;100.00
11198;BME280;5655;48.744;9.162;2023-05-25T11:01:23;96693.00;;;21.08;100.00
11198;BME280;5655;48.744;9.162;2023-05-25T11:03:53;96690.28;;;21.08;100.00
11198;BME280;5655;48.744;9.162;2023-05-25T11:06:20;96695.25;;;20.94;100.00
11198;BME280;5655;48.744;9.162;2023-05-25T11:11:16;96700.69;;;20.58;100.00
11198;BME280;5655;48.744;9.162;2023-05-25T11:13:46;96689.66;;;20.65;100.00
11198;BME280;5655;48.744;9.162;2023-05-25T11:16:22;96699.84;;;20.61;100.00
11198;BME280;5655;48.744;9.162;2023-05-25T11:19:00;96694.41;;;20.61;100.00
11198;BME280;5655;48.744;9.162;2023-05-25T11:23:55;96694.69;;;21.02;100.00
11198;BME280;5655;48.744;9.162;2023-05-25T11:26:29;96680.38;;;20.98;100.00
11198;BME280;5655;48.744;9.162;2023-05-25T11:28:55;96690.72;;;20.51;100.00
11198;BME280;5655;48.744;9.162;2023-05-25T11:31:41;96688.47;;;21.02;100.00
11198;BME280;5655;48.744;9.162;2023-05-25T11:34:06;96682.44;;;21.10;100.00
11198;BME280;5655;48.744;9.162;2023-05-25T11:36:34;96684.28;;;20.97;100.00
11198;BME280;5655;48.744;9.162;2023-05-25T11:39:01;96678.63;;;21.08;100.00
11198;BME280;5655;48.744;9.162;2023-05-25T11:41:27;96682.25;;;21.37;100.00
11198;BME280;5655;48.744;9.162;2023-05-25T11:43:54;96670.66;;;21.33;100.00
11198;BME280;5655;48.744;9.162;2023-05-25T11:46:20;96685.91;;;21.63;100.00
11198;BME280;5655;48.744;9.162;2023-05-25T11:48:52;96687.69;;;21.69;100.00
11198;BME280;5655;48.744;9.162;2023-05-25T11:51:23;96685.22;;;21.59;100.00
11198;BME280;5655;48.744;9.162;2023-05-25T11:53:49;96680.88;;;21.78;100.00
11198;BME280;5655;48.744;9.162;2023-05-25T11:56:16;96677.88;;;22.04;100.00
11198;BME280;5655;48.744;9.162;2023-05-25T11:58:42;96686.03;;;21.88;100.00
11198;BME280;5655;48.744;9.162;2023-05-25T12:01:19;96686.50;;;22.44;100.00
11198;BME280;5655;48.744;9.162;2023-05-25T12:03:46;96684.47;;;22.20;100.00
11198;BME280;5655;48.744;9.162;2023-05-25T12:08:53;96682.75;;;22.67;100.00
11198;BME280;5655;48.744;9.162;2023-05-25T12:11:39;96668.31;;;22.12;100.00
11198;BME280;5655;48.744;9.162;2023-05-25T12:14:09;96671.25;;;22.47;100.00
11198;BME280;5655;48.744;9.162;2023-05-25T12:16:35;96670.25;;;22.53;100.00
11198;BME280;5655;48.744;9.162;2023-05-25T12:19:03;96676.72;;;22.59;100.00
11198;BME280;5655;48.744;9.162;2023-05-25T12:21:29;96668.28;;;22.41;100.00
11198;BME280;5655;48.744;9.162;2023-05-25T12:23:55;96673.69;;;22.29;100.00
11198;BME280;5655;48.744;9.162;2023-05-25T12:26:20;96681.38;;;22.46;100.00
11198;BME280;5655;48.744;9.162;2023-05-25T12:29:05;96676.88;;;22.40;100.00
11198;BME280;5655;48.744;9.162;2023-05-25T12:31:35;96679.81;;;22.74;100.00
11198;BME280;5655;48.744;9.162;2023-05-25T12:34:06;96669.06;;;22.54;100.00
11198;BME280;5655;48.744;9.162;2023-05-25T12:36:58;96675.81;;;22.50;100.00
11198;BME280;5655;48.744;9.162;2023-05-25T12:41:58;96684.97;;;22.72;100.00
11198;BME280;5655;48.744;9.162;2023-05-25T12:44:34;96681.22;;;22.66;100.00
11198;BME280;5655;48.744;9.162;2023-05-25T12:47:13;96671.47;;;23.06;100.00
11198;BME280;5655;48.744;9.162;2023-05-25T12:49:43;96675.63;;;22.57;100.00
11198;BME280;5655;48.744;9.162;2023-05-25T12:52:09;96677.09;;;22.87;100.00
11198;BME280;5655;48.744;9.162;2023-05-25T12:54:42;96683.03;;;22.85;100.00
11198;BME280;5655;48.744;9.162;2023-05-25T12:57:13;96686.41;;;22.89;100.00
11198;BME280;5655;48.744;9.162;2023-05-25T12:59:41;96681.06;;;22.86;100.00
11198;BME280;5655;48.744;9.162;2023-05-25T13:02:07;96678.44;;;22.82;100.00
11198;BME280;5655;48.744;9.162;2023-05-25T13:04:34;96681.56;;;22.68;100.00
11198;BME280;5655;48.744;9.162;2023-05-25T13:06:59;96677.47;;;23.01;100.00
11198;BME280;5655;48.744;9.162;2023-05-25T13:09:25;96673.19;;;23.13;100.00